Time;durP1;ratioP1;P1;durP2;ratioP2;P2;SDS_P1;SDS_P2;PMS_P1;PMS_P2;Temp;Humidity;BMP_temperature;BMP_pressure;BME280_temperature;BME280_humidity;BME280_pressure;Samples;Min_cycle;Max_cycle;Signal;HPM_P1;HPM_P2
2022/01/08 00:00:33;;;;;;;35.37;17.50;;;;;;;;;;5036363;28;20613;-72
2022/01/08 00:02:59;;;;;;;34.77;19.27;;;;;;;;;;5031807;28;20185;-73
2022/01/08 00:05:24;;;;;;;33.27;18.07;;;;;;;;;;5035226;28;20177;-73
2022/01/08 00:07:54;;;;;;;31.43;17.97;;;;;;;;;;5036067;28;20189;-73
2022/01/08 00:10:20;;;;;;;34.43;18.07;;;;;;;;;;5035097;28;20241;-74
2022/01/08 00:12:45;;;;;;;29.73;18.17;;;;;;;;;;5038305;28;20646;-76
2022/01/08 00:15:10;;;;;;;31.73;17.60;;;;;;;;;;5032961;28;20743;-74
2022/01/08 00:17:36;;;;;;;28.03;16.87;;;;;;;;;;5036127;28;20311;-73
2022/01/08 00:20:04;;;;;;;32.60;18.10;;;;;;;;;;5038525;28;20185;-73
2022/01/08 00:22:29;;;;;;;29.93;17.60;;;;;;;;;;5036271;28;20189;-73
2022/01/08 00:24:54;;;;;;;29.87;17.37;;;;;;;;;;5033774;28;20755;-73
2022/01/08 00:27:20;;;;;;;30.80;17.00;;;;;;;;;;5037336;28;20189;-73
2022/01/08 00:29:46;;;;;;;29.43;17.27;;;;;;;;;;5038650;28;20229;-72
2022/01/08 00:32:13;;;;;;;31.30;18.03;;;;;;;;;;5033227;28;20268;-72
2022/01/08 00:34:38;;;;;;;30.10;17.77;;;;;;;;;;5034773;28;20809;-72
2022/01/08 00:37:06;;;;;;;31.93;18.03;;;;;;;;;;5035690;28;20190;-72
2022/01/08 00:39:31;;;;;;;33.17;18.97;;;;;;;;;;5036153;28;20197;-72
2022/01/08 00:41:57;;;;;;;32.90;19.47;;;;;;;;;;5036339;28;20209;-71
2022/01/08 00:44:22;;;;;;;34.73;19.37;;;;;;;;;;5039324;28;20193;-72
2022/01/08 00:46:47;;;;;;;38.87;19.77;;;;;;;;;;5038454;28;20508;-70
2022/01/08 00:49:13;;;;;;;31.60;19.17;;;;;;;;;;5036551;28;20235;-70
2022/01/08 00:51:38;;;;;;;33.50;19.30;;;;;;;;;;5042212;28;20275;-70
2022/01/08 00:54:03;;;;;;;38.40;20.03;;;;;;;;;;5040049;28;20216;-70
2022/01/08 00:56:29;;;;;;;33.47;19.73;;;;;;;;;;5043480;28;20185;-70
2022/01/08 00:58:54;;;;;;;39.80;20.57;;;;;;;;;;5048376;28;20193;-69
2022/01/08 01:01:19;;;;;;;34.53;20.57;;;;;;;;;;5042614;28;20236;-69
2022/01/08 01:03:45;;;;;;;35.90;20.87;;;;;;;;;;5047634;28;20181;-69
2022/01/08 01:06:10;;;;;;;38.63;20.87;;;;;;;;;;5044830;28;20825;-69
2022/01/08 01:08:35;;;;;;;35.37;20.50;;;;;;;;;;5046656;28;20268;-69
2022/01/08 01:11:01;;;;;;;35.07;20.67;;;;;;;;;;5044691;28;20284;-69
2022/01/08 01:13:26;;;;;;;40.43;22.73;;;;;;;;;;5045805;28;20254;-69
2022/01/08 01:15:51;;;;;;;38.63;21.43;;;;;;;;;;5042858;28;20208;-69
2022/01/08 01:18:18;;;;;;;37.80;21.47;;;;;;;;;;5045732;28;20196;-69
2022/01/08 01:20:44;;;;;;;38.17;22.00;;;;;;;;;;5045924;28;20574;-69
2022/01/08 01:23:17;;;;;;;39.13;21.77;;;;;;;;;;5041468;28;20193;-69
2022/01/08 01:25:49;;;;;;;36.87;21.57;;;;;;;;;;5044215;28;20193;-69
2022/01/08 01:28:28;;;;;;;45.43;21.57;;;;;;;;;;5043583;28;20248;-68
2022/01/08 01:41:55;;;;;;;39.33;21.67;;;;;;;;;;5046413;28;20208;-68
2022/01/08 01:47:04;;;;;;;46.50;22.73;;;;;;;;;;5035813;28;20225;-68
2022/01/08 01:49:41;;;;;;;43.10;22.77;;;;;;;;;;5043357;28;20304;-68
2022/01/08 01:52:13;;;;;;;46.27;22.63;;;;;;;;;;5043442;28;20577;-69
2022/01/08 01:54:38;;;;;;;41.20;23.57;;;;;;;;;;5042142;28;20196;-68
2022/01/08 01:57:06;;;;;;;47.47;25.03;;;;;;;;;;5045252;28;20225;-68
2022/01/08 01:59:33;;;;;;;47.73;25.63;;;;;;;;;;5044024;28;20204;-68
2022/01/08 02:01:59;;;;;;;51.67;26.33;;;;;;;;;;5045355;28;20598;-68
2022/01/08 02:04:25;;;;;;;49.30;25.00;;;;;;;;;;5045973;28;20203;-67
2022/01/08 02:06:51;;;;;;;49.53;25.80;;;;;;;;;;5038375;28;20196;-68
2022/01/08 02:09:16;;;;;;;50.40;25.33;;;;;;;;;;5045426;28;20526;-68
2022/01/08 02:12:02;;;;;;;47.90;25.60;;;;;;;;;;5034914;28;20182;-68
2022/01/08 02:14:31;;;;;;;45.97;24.83;;;;;;;;;;5040877;28;20201;-68
2022/01/08 02:16:57;;;;;;;48.37;26.27;;;;;;;;;;5043613;28;20665;-68
2022/01/08 02:19:22;;;;;;;49.53;25.10;;;;;;;;;;5045242;28;20193;-68
2022/01/08 02:21:53;;;;;;;46.57;25.43;;;;;;;;;;5041167;28;20201;-68
2022/01/08 02:24:19;;;;;;;47.33;25.17;;;;;;;;;;5045729;28;20193;-68
2022/01/08 02:26:44;;;;;;;43.27;24.30;;;;;;;;;;5043602;28;20188;-68
2022/01/08 02:29:15;;;;;;;45.67;26.30;;;;;;;;;;5045037;28;20548;-68
2022/01/08 02:31:41;;;;;;;49.73;25.73;;;;;;;;;;5040585;28;20201;-68
2022/01/08 02:34:07;;;;;;;48.63;26.13;;;;;;;;;;5045608;28;20192;-68
2022/01/08 02:36:34;;;;;;;50.43;26.07;;;;;;;;;;5041740;28;20196;-67
2022/01/08 02:39:00;;;;;;;52.67;27.10;;;;;;;;;;5044446;28;20240;-67
2022/01/08 02:41:27;;;;;;;44.50;24.97;;;;;;;;;;5039660;28;20197;-67
2022/01/08 02:43:53;;;;;;;44.13;26.30;;;;;;;;;;5040163;28;20635;-68
2022/01/08 02:46:20;;;;;;;56.37;27.67;;;;;;;;;;5041788;28;20708;-68
2022/01/08 02:48:45;;;;;;;48.47;26.80;;;;;;;;;;5045098;28;20200;-68
2022/01/08 02:51:11;;;;;;;54.30;28.50;;;;;;;;;;5041859;28;20178;-68
2022/01/08 02:53:37;;;;;;;52.83;26.60;;;;;;;;;;5038864;28;20188;-68
2022/01/08 02:56:02;;;;;;;55.37;28.73;;;;;;;;;;5043357;28;20290;-67
2022/01/08 02:58:28;;;;;;;64.10;29.33;;;;;;;;;;5044431;28;20551;-67
2022/01/08 03:00:57;;;;;;;59.00;30.27;;;;;;;;;;5044579;28;20205;-68
2022/01/08 03:03:23;;;;;;;54.63;28.63;;;;;;;;;;5038333;28;20315;-67
2022/01/08 03:05:48;;;;;;;62.80;30.03;;;;;;;;;;5042639;28;20284;-67
2022/01/08 03:08:14;;;;;;;59.13;29.00;;;;;;;;;;5044587;28;20185;-67
2022/01/08 03:10:39;;;;;;;58.37;31.40;;;;;;;;;;5041377;28;20303;-67
2022/01/08 03:13:05;;;;;;;56.43;29.77;;;;;;;;;;5043486;28;20640;-67
2022/01/08 03:15:34;;;;;;;54.50;30.03;;;;;;;;;;5043197;28;20178;-67
2022/01/08 03:18:00;;;;;;;62.87;30.57;;;;;;;;;;5042453;28;20656;-67
2022/01/08 03:20:25;;;;;;;60.73;30.90;;;;;;;;;;5043242;28;20212;-67
2022/01/08 03:22:51;;;;;;;56.37;29.43;;;;;;;;;;5042889;28;20480;-68
2022/01/08 03:25:17;;;;;;;54.70;28.33;;;;;;;;;;5037843;28;20712;-68
2022/01/08 03:27:42;;;;;;;57.73;29.47;;;;;;;;;;5044968;28;20272;-68
2022/01/08 03:30:10;;;;;;;56.13;28.73;;;;;;;;;;5041711;28;20279;-68
2022/01/08 03:32:35;;;;;;;58.10;29.87;;;;;;;;;;5042870;28;20206;-67
2022/01/08 03:35:01;;;;;;;57.53;27.43;;;;;;;;;;5045339;28;20208;-67
2022/01/08 03:37:26;;;;;;;53.33;29.20;;;;;;;;;;5044674;28;20201;-67
2022/01/08 03:39:52;;;;;;;58.70;30.47;;;;;;;;;;5046503;28;20272;-67
2022/01/08 03:42:17;;;;;;;58.57;31.17;;;;;;;;;;5046056;28;20212;-66
2022/01/08 03:44:43;;;;;;;59.00;31.33;;;;;;;;;;5045025;28;20594;-67
2022/01/08 03:49:51;;;;;;;58.00;30.30;;;;;;;;;;5046460;28;20185;-67
2022/01/08 03:52:17;;;;;;;64.90;32.77;;;;;;;;;;5047652;28;20181;-67
2022/01/08 03:54:42;;;;;;;60.03;31.77;;;;;;;;;;5045207;28;20181;-67
2022/01/08 03:57:08;;;;;;;61.67;32.40;;;;;;;;;;5042483;28;20343;-67
2022/01/08 03:59:34;;;;;;;65.07;34.03;;;;;;;;;;5048388;28;20182;-68
2022/01/08 04:01:59;;;;;;;68.67;32.13;;;;;;;;;;5047245;28;20209;-68
2022/01/08 04:04:25;;;;;;;63.00;31.83;;;;;;;;;;5045813;28;20774;-67
2022/01/08 04:06:51;;;;;;;60.60;31.97;;;;;;;;;;5044724;28;20275;-68
2022/01/08 04:09:17;;;;;;;64.80;32.73;;;;;;;;;;5045788;28;20186;-68
2022/01/08 04:11:42;;;;;;;58.10;31.83;;;;;;;;;;5044757;28;20660;-68
2022/01/08 04:14:08;;;;;;;64.53;32.20;;;;;;;;;;5045002;28;20182;-67
2022/01/08 04:16:37;;;;;;;60.60;33.73;;;;;;;;;;5046462;28;20192;-68
2022/01/08 04:19:02;;;;;;;55.33;31.93;;;;;;;;;;5046672;28;21455;-67
2022/01/08 04:24:03;;;;;;;65.80;32.23;;;;;;;;;;5045690;28;20189;-68
2022/01/08 04:26:28;;;;;;;57.13;30.83;;;;;;;;;;5040072;28;20593;-67
2022/01/08 04:28:55;;;;;;;57.67;32.13;;;;;;;;;;5043576;28;20213;-67
2022/01/08 04:31:22;;;;;;;55.77;30.07;;;;;;;;;;5040197;28;20198;-67
2022/01/08 04:33:47;;;;;;;58.47;31.23;;;;;;;;;;5043700;28;20182;-67
2022/01/08 04:36:12;;;;;;;49.10;28.63;;;;;;;;;;5042564;28;20236;-67
2022/01/08 04:38:38;;;;;;;53.23;29.43;;;;;;;;;;5046322;28;20198;-67
2022/01/08 04:41:03;;;;;;;52.57;29.40;;;;;;;;;;5045924;28;20197;-67
2022/01/08 04:43:29;;;;;;;51.27;29.07;;;;;;;;;;5045377;28;20182;-67
2022/01/08 04:45:55;;;;;;;52.83;27.87;;;;;;;;;;5044130;28;20182;-67
2022/01/08 04:48:20;;;;;;;47.57;26.53;;;;;;;;;;5044755;28;20345;-67
2022/01/08 04:50:46;;;;;;;47.97;26.40;;;;;;;;;;5046150;28;20178;-67
2022/01/08 04:53:11;;;;;;;52.60;26.77;;;;;;;;;;5042605;28;20575;-67
2022/01/08 04:55:37;;;;;;;52.37;26.37;;;;;;;;;;5044390;28;20174;-67
2022/01/08 04:58:03;;;;;;;47.63;25.90;;;;;;;;;;5046282;28;20312;-67
2022/01/08 05:00:29;;;;;;;52.43;27.13;;;;;;;;;;5046416;28;20209;-68
2022/01/08 05:02:54;;;;;;;57.57;27.07;;;;;;;;;;5030779;28;20243;-68
2022/01/08 05:05:20;;;;;;;56.93;27.13;;;;;;;;;;5042047;28;20489;-67
2022/01/08 05:07:45;;;;;;;50.23;25.73;;;;;;;;;;5048106;28;20572;-66
2022/01/08 05:10:11;;;;;;;54.67;27.63;;;;;;;;;;5042554;28;20200;-67
2022/01/08 05:12:37;;;;;;;52.93;27.33;;;;;;;;;;5049055;28;20186;-67
2022/01/08 05:15:02;;;;;;;56.87;28.37;;;;;;;;;;5042744;28;20558;-67
2022/01/08 05:17:33;;;;;;;49.50;27.30;;;;;;;;;;5046718;28;20285;-67
2022/01/08 05:20:01;;;;;;;53.10;27.70;;;;;;;;;;5041838;28;20296;-67
2022/01/08 05:22:29;;;;;;;51.57;26.20;;;;;;;;;;5050298;28;20554;-67
2022/01/08 05:24:55;;;;;;;47.77;26.00;;;;;;;;;;5042005;28;20208;-67
2022/01/08 05:27:21;;;;;;;53.53;26.40;;;;;;;;;;5046747;28;20181;-67
2022/01/08 05:29:50;;;;;;;56.57;27.40;;;;;;;;;;5043708;28;20182;-67
2022/01/08 05:32:18;;;;;;;49.07;27.63;;;;;;;;;;5046253;28;20189;-67
2022/01/08 05:34:45;;;;;;;57.60;27.03;;;;;;;;;;5043801;28;20185;-67
2022/01/08 05:37:11;;;;;;;52.67;27.30;;;;;;;;;;5047738;28;20197;-67
2022/01/08 05:39:36;;;;;;;57.27;26.00;;;;;;;;;;5044049;28;20177;-67
2022/01/08 05:42:02;;;;;;;48.00;26.67;;;;;;;;;;5042721;28;20244;-67
2022/01/08 05:44:28;;;;;;;49.27;26.40;;;;;;;;;;5046073;28;20276;-67
2022/01/08 05:46:53;;;;;;;50.43;26.80;;;;;;;;;;5041299;28;20268;-67
2022/01/08 05:49:18;;;;;;;53.73;28.10;;;;;;;;;;5042610;28;20182;-68
2022/01/08 05:51:44;;;;;;;54.50;26.67;;;;;;;;;;5044400;28;20185;-68
2022/01/08 05:54:09;;;;;;;54.27;26.73;;;;;;;;;;5044273;28;20181;-66
2022/01/08 05:56:35;;;;;;;54.50;26.73;;;;;;;;;;5044274;28;20208;-67
2022/01/08 05:59:00;;;;;;;53.23;27.97;;;;;;;;;;5038040;28;20186;-67
2022/01/08 06:01:26;;;;;;;47.90;25.30;;;;;;;;;;5043893;28;20201;-67
2022/01/08 06:03:51;;;;;;;57.67;27.40;;;;;;;;;;5041640;28;20250;-67
2022/01/08 06:06:17;;;;;;;53.63;26.80;;;;;;;;;;5045307;28;20640;-67
2022/01/08 06:08:42;;;;;;;46.70;25.90;;;;;;;;;;5044908;28;20268;-67
2022/01/08 06:11:07;;;;;;;47.47;25.80;;;;;;;;;;5043496;28;20212;-67
2022/01/08 06:13:33;;;;;;;62.97;27.03;;;;;;;;;;5044779;28;20410;-67
2022/01/08 06:15:58;;;;;;;49.60;26.73;;;;;;;;;;5044659;28;20178;-68
2022/01/08 06:18:23;;;;;;;54.10;25.40;;;;;;;;;;5044747;28;20181;-67
2022/01/08 06:20:49;;;;;;;53.47;25.77;;;;;;;;;;5042531;28;20201;-67
2022/01/08 06:23:14;;;;;;;51.13;27.23;;;;;;;;;;5044023;28;20186;-67
2022/01/08 06:25:43;;;;;;;66.03;26.50;;;;;;;;;;5044134;28;20263;-67
2022/01/08 06:28:11;;;;;;;50.33;26.20;;;;;;;;;;5040312;28;20207;-66
2022/01/08 06:30:36;;;;;;;59.40;26.93;;;;;;;;;;5043075;28;20208;-66
2022/01/08 06:33:02;;;;;;;56.00;26.37;;;;;;;;;;5042706;28;20186;-67
2022/01/08 06:35:28;;;;;;;48.53;27.47;;;;;;;;;;5045222;28;20181;-67
2022/01/08 06:37:53;;;;;;;53.23;25.40;;;;;;;;;;5041241;28;20949;-68
2022/01/08 06:40:18;;;;;;;53.07;26.03;;;;;;;;;;5042575;28;20456;-68
2022/01/08 06:42:44;;;;;;;49.60;24.80;;;;;;;;;;5042369;28;20276;-68
2022/01/08 06:45:09;;;;;;;55.50;27.33;;;;;;;;;;5043879;28;20223;-68
2022/01/08 06:47:35;;;;;;;57.93;26.97;;;;;;;;;;5040298;28;20498;-68
2022/01/08 06:50:01;;;;;;;63.13;28.27;;;;;;;;;;5041526;28;20189;-68
2022/01/08 06:52:26;;;;;;;50.53;26.80;;;;;;;;;;5041461;28;20182;-68
2022/01/08 06:54:51;;;;;;;57.23;28.17;;;;;;;;;;5042319;28;20189;-68
2022/01/08 06:57:17;;;;;;;60.60;28.13;;;;;;;;;;5041636;28;20260;-67
2022/01/08 06:59:42;;;;;;;59.20;26.43;;;;;;;;;;5043011;28;20182;-67
2022/01/08 07:02:07;;;;;;;53.90;27.73;;;;;;;;;;5038978;28;20205;-67
2022/01/08 07:04:33;;;;;;;52.73;25.03;;;;;;;;;;5043054;28;20208;-67
2022/01/08 07:06:58;;;;;;;65.57;27.70;;;;;;;;;;5042712;28;20185;-67
2022/01/08 07:09:24;;;;;;;48.23;26.23;;;;;;;;;;5047035;28;20189;-68
2022/01/08 07:11:50;;;;;;;59.53;27.00;;;;;;;;;;5045746;28;20196;-67
2022/01/08 07:14:15;;;;;;;60.27;28.10;;;;;;;;;;5047715;28;20197;-67
2022/01/08 07:16:41;;;;;;;50.37;26.20;;;;;;;;;;5046917;28;20193;-67
2022/01/08 07:19:06;;;;;;;58.80;27.30;;;;;;;;;;5046354;28;20639;-68
2022/01/08 07:21:31;;;;;;;61.83;28.57;;;;;;;;;;5045164;28;20596;-67
2022/01/08 07:23:57;;;;;;;52.50;27.43;;;;;;;;;;5047029;28;20719;-67
2022/01/08 07:26:22;;;;;;;65.03;27.60;;;;;;;;;;5046143;28;20575;-67
2022/01/08 07:28:47;;;;;;;58.23;29.07;;;;;;;;;;5045195;28;20204;-68
2022/01/08 07:31:13;;;;;;;61.90;29.63;;;;;;;;;;5044563;28;20208;-68
2022/01/08 07:33:38;;;;;;;53.60;26.07;;;;;;;;;;5044950;28;20204;-67
2022/01/08 07:36:03;;;;;;;60.53;28.00;;;;;;;;;;5040410;28;20240;-67
2022/01/08 07:38:29;;;;;;;56.07;26.33;;;;;;;;;;5047063;28;20716;-67
2022/01/08 07:40:54;;;;;;;56.20;27.10;;;;;;;;;;5047808;28;20213;-67
2022/01/08 07:43:20;;;;;;;51.80;25.90;;;;;;;;;;5043827;28;20639;-68
2022/01/08 07:45:45;;;;;;;55.67;28.50;;;;;;;;;;5041967;28;20667;-68
2022/01/08 07:48:11;;;;;;;56.90;27.67;;;;;;;;;;5043469;28;20582;-68
2022/01/08 07:50:38;;;;;;;59.27;26.40;;;;;;;;;;5043442;28;20178;-67
2022/01/08 07:53:03;;;;;;;51.23;24.80;;;;;;;;;;5042196;28;20185;-67
2022/01/08 07:55:29;;;;;;;58.73;28.03;;;;;;;;;;5041879;28;20208;-67
2022/01/08 07:57:54;;;;;;;56.10;26.53;;;;;;;;;;5042859;28;20241;-67
2022/01/08 08:00:19;;;;;;;52.30;27.40;;;;;;;;;;5046247;28;20200;-68
2022/01/08 08:02:45;;;;;;;50.50;26.13;;;;;;;;;;5045116;28;20190;-68
2022/01/08 08:05:11;;;;;;;55.73;26.90;;;;;;;;;;5045506;28;20182;-68
2022/01/08 08:07:37;;;;;;;55.80;27.07;;;;;;;;;;5043214;28;20193;-69
2022/01/08 08:10:17;;;;;;;52.97;25.87;;;;;;;;;;5041360;28;20276;-67
2022/01/08 08:12:43;;;;;;;53.27;25.97;;;;;;;;;;5037913;28;20178;-67
2022/01/08 08:15:11;;;;;;;46.80;23.80;;;;;;;;;;5045738;28;20192;-68
2022/01/08 08:17:37;;;;;;;50.83;26.40;;;;;;;;;;5042577;28;20351;-67
2022/01/08 08:20:04;;;;;;;50.47;26.23;;;;;;;;;;5042357;28;20275;-68
2022/01/08 08:22:30;;;;;;;53.90;26.00;;;;;;;;;;5042622;28;20649;-68
2022/01/08 08:24:55;;;;;;;49.17;24.37;;;;;;;;;;5043777;28;20194;-67
2022/01/08 08:27:20;;;;;;;46.10;24.07;;;;;;;;;;5042227;28;20185;-68
2022/01/08 08:29:46;;;;;;;47.53;23.50;;;;;;;;;;5043689;28;20182;-67
2022/01/08 08:32:11;;;;;;;50.67;22.83;;;;;;;;;;5044349;28;20559;-68
2022/01/08 08:34:37;;;;;;;43.60;22.83;;;;;;;;;;5044566;28;20259;-68
2022/01/08 08:37:02;;;;;;;48.33;23.67;;;;;;;;;;5040885;28;20383;-67
2022/01/08 08:39:28;;;;;;;48.50;21.73;;;;;;;;;;5042036;28;20178;-68
2022/01/08 08:41:53;;;;;;;50.17;23.57;;;;;;;;;;5045659;28;20266;-68
2022/01/08 08:44:19;;;;;;;44.63;23.20;;;;;;;;;;5040815;28;20201;-68
2022/01/08 08:46:44;;;;;;;49.07;23.50;;;;;;;;;;5049761;28;20223;-68
2022/01/08 08:49:10;;;;;;;43.27;23.00;;;;;;;;;;5042400;28;20648;-68
2022/01/08 08:51:35;;;;;;;45.70;23.10;;;;;;;;;;5046096;28;20674;-68
2022/01/08 08:54:01;;;;;;;40.30;23.43;;;;;;;;;;5041587;28;20653;-68
2022/01/08 08:56:28;;;;;;;49.60;23.07;;;;;;;;;;5046823;28;20260;-68
2022/01/08 08:58:53;;;;;;;48.83;22.73;;;;;;;;;;5041180;28;20228;-68
2022/01/08 09:01:19;;;;;;;46.90;23.40;;;;;;;;;;5045675;28;20202;-68
2022/01/08 09:03:44;;;;;;;44.47;22.67;;;;;;;;;;5043646;28;20261;-68
2022/01/08 09:06:09;;;;;;;42.90;21.10;;;;;;;;;;5043547;28;20200;-68
2022/01/08 09:08:35;;;;;;;49.93;23.90;;;;;;;;;;5040988;28;20243;-68
2022/01/08 09:11:00;;;;;;;46.37;23.50;;;;;;;;;;5040045;28;20274;-68
2022/01/08 09:13:27;;;;;;;45.07;22.23;;;;;;;;;;5041844;28;20193;-68
2022/01/08 09:15:53;;;;;;;40.33;21.93;;;;;;;;;;5037767;28;20231;-67
2022/01/08 09:18:18;;;;;;;42.30;21.20;;;;;;;;;;5037644;28;20189;-67
2022/01/08 09:20:46;;;;;;;48.37;22.50;;;;;;;;;;5037902;28;20263;-68
2022/01/08 09:23:11;;;;;;;40.33;21.73;;;;;;;;;;5033455;28;20190;-68
2022/01/08 09:25:37;;;;;;;44.60;22.53;;;;;;;;;;5038799;28;20873;-69
2022/01/08 09:28:03;;;;;;;44.80;22.00;;;;;;;;;;5037164;28;20200;-68
2022/01/08 09:30:28;;;;;;;36.97;21.13;;;;;;;;;;5035765;28;20220;-68
2022/01/08 09:32:55;;;;;;;41.57;21.40;;;;;;;;;;5037132;28;20194;-67
2022/01/08 09:35:21;;;;;;;41.43;21.13;;;;;;;;;;5036984;28;20199;-69
2022/01/08 09:37:46;;;;;;;42.20;21.73;;;;;;;;;;5037558;28;20189;-68
2022/01/08 09:40:15;;;;;;;45.67;21.40;;;;;;;;;;5034397;28;20193;-68
2022/01/08 09:42:41;;;;;;;37.27;22.47;;;;;;;;;;5034363;28;20225;-69
2022/01/08 09:45:08;;;;;;;38.00;21.43;;;;;;;;;;5034283;28;20196;-69
2022/01/08 09:47:33;;;;;;;41.13;20.63;;;;;;;;;;5032783;28;20268;-68
2022/01/08 09:49:59;;;;;;;39.03;20.63;;;;;;;;;;5034108;28;20205;-68
2022/01/08 09:52:24;;;;;;;42.30;20.50;;;;;;;;;;5036280;28;20181;-68
2022/01/08 09:54:50;;;;;;;36.80;19.90;;;;;;;;;;5040950;28;20248;-68
2022/01/08 09:57:15;;;;;;;35.27;20.63;;;;;;;;;;5039913;28;20960;-68
2022/01/08 09:59:41;;;;;;;33.47;20.13;;;;;;;;;;5040042;28;21123;-68
2022/01/08 10:02:06;;;;;;;32.27;18.90;;;;;;;;;;5039942;28;20288;-68
2022/01/08 10:04:35;;;;;;;35.17;19.47;;;;;;;;;;5043917;28;20208;-68
2022/01/08 10:07:21;;;;;;;35.03;19.87;;;;;;;;;;5039246;28;20193;-67
2022/01/08 10:10:07;;;;;;;31.43;18.83;;;;;;;;;;5040393;28;20337;-68
2022/01/08 10:12:43;;;;;;;35.50;18.53;;;;;;;;;;5038263;28;20222;-68
2022/01/08 10:17:54;;;;;;;29.00;18.87;;;;;;;;;;5039665;28;20276;-68
2022/01/08 10:20:34;;;;;;;35.70;19.17;;;;;;;;;;5043599;28;20185;-69
2022/01/08 10:23:08;;;;;;;33.83;19.40;;;;;;;;;;5041818;28;20668;-68
2022/01/08 10:25:33;;;;;;;32.60;18.57;;;;;;;;;;5042195;28;20177;-69
2022/01/08 10:27:58;;;;;;;32.60;18.70;;;;;;;;;;5044364;28;20617;-69
2022/01/08 10:30:26;;;;;;;35.23;19.97;;;;;;;;;;5040643;28;20209;-69
2022/01/08 10:32:59;;;;;;;37.33;20.90;;;;;;;;;;5041234;28;20613;-68
2022/01/08 10:35:47;;;;;;;35.83;20.07;;;;;;;;;;4337991;28;10000718;-69
2022/01/08 10:38:13;;;;;;;37.03;22.00;;;;;;;;;;5040192;28;20208;-69
2022/01/08 10:40:38;;;;;;;39.73;21.67;;;;;;;;;;5040980;28;20559;-69
2022/01/08 10:43:19;;;;;;;38.03;23.53;;;;;;;;;;5043418;28;20226;-69
2022/01/08 10:45:44;;;;;;;44.33;23.90;;;;;;;;;;5041478;28;20241;-71
2022/01/08 10:48:10;;;;;;;38.20;23.50;;;;;;;;;;5037197;28;20205;-69
2022/01/08 10:50:35;;;;;;;42.87;25.47;;;;;;;;;;5040783;28;20784;-69
2022/01/08 10:53:00;;;;;;;48.00;26.07;;;;;;;;;;5039529;28;20201;-69
2022/01/08 10:55:30;;;;;;;43.17;26.57;;;;;;;;;;5029425;28;20250;-69
2022/01/08 10:57:56;;;;;;;37.90;24.20;;;;;;;;;;5034618;28;20264;-69
2022/01/08 11:00:30;;;;;;;48.13;25.10;;;;;;;;;;5037715;28;20675;-70
2022/01/08 11:02:56;;;;;;;41.40;23.27;;;;;;;;;;5034731;28;20282;-70
2022/01/08 11:05:21;;;;;;;41.03;24.83;;;;;;;;;;5033699;28;20189;-70
2022/01/08 11:07:46;;;;;;;39.73;23.37;;;;;;;;;;5032270;28;20212;-71
2022/01/08 11:10:23;;;;;;;38.67;23.67;;;;;;;;;;5034292;28;20189;-71
2022/01/08 11:12:51;;;;;;;39.80;23.23;;;;;;;;;;5033868;28;20285;-71
2022/01/08 11:17:56;;;;;;;39.17;21.03;;;;;;;;;;5035709;28;20679;-69
2022/01/08 11:20:29;;;;;;;36.90;21.90;;;;;;;;;;5035121;28;20193;-70
2022/01/08 11:22:57;;;;;;;36.90;19.87;;;;;;;;;;5034732;28;20286;-71
2022/01/08 11:25:44;;;;;;;34.07;20.33;;;;;;;;;;5035408;28;20553;-70
2022/01/08 11:28:12;;;;;;;34.77;18.57;;;;;;;;;;5034624;28;20191;-70
2022/01/08 11:30:42;;;;;;;33.00;18.93;;;;;;;;;;5040167;28;20373;-69
2022/01/08 11:33:16;;;;;;;34.83;18.50;;;;;;;;;;4684014;28;10000437;-70
2022/01/08 11:35:44;;;;;;;32.03;18.30;;;;;;;;;;5032660;28;20201;-70
2022/01/08 11:38:12;;;;;;;32.60;17.17;;;;;;;;;;5030436;28;20188;-70
2022/01/08 11:40:43;;;;;;;36.07;18.27;;;;;;;;;;5029806;28;20290;-70
2022/01/08 11:43:11;;;;;;;28.33;16.87;;;;;;;;;;5030795;28;20607;-70
2022/01/08 11:45:50;;;;;;;33.57;17.60;;;;;;;;;;5031503;28;20634;-71
2022/01/08 11:48:18;;;;;;;34.60;19.10;;;;;;;;;;5034642;28;20940;-71
2022/01/08 11:50:55;;;;;;;39.53;20.00;;;;;;;;;;5032353;28;20194;-70
2022/01/08 11:53:45;;;;;;;36.97;20.70;;;;;;;;;;5033218;28;20191;-70
2022/01/08 11:56:25;;;;;;;41.17;20.93;;;;;;;;;;5023166;28;20202;-71
2022/01/08 11:59:05;;;;;;;38.20;20.43;;;;;;;;;;5033544;28;20224;-70
2022/01/08 12:01:31;;;;;;;40.90;22.10;;;;;;;;;;5032195;28;20251;-71
2022/01/08 12:03:56;;;;;;;38.30;20.77;;;;;;;;;;5033371;28;20244;-70
2022/01/08 12:06:27;;;;;;;41.23;20.30;;;;;;;;;;5030360;28;20528;-70
2022/01/08 12:09:07;;;;;;;35.97;20.93;;;;;;;;;;5035339;28;20599;-71
2022/01/08 12:11:48;;;;;;;41.53;20.73;;;;;;;;;;5035224;28;20880;-70
2022/01/08 12:14:15;;;;;;;38.93;19.77;;;;;;;;;;5048150;28;20199;-70
2022/01/08 12:16:43;;;;;;;39.27;20.73;;;;;;;;;;5033314;28;20623;-70
2022/01/08 12:19:27;;;;;;;37.50;18.57;;;;;;;;;;5040204;28;20273;-71
2022/01/08 12:21:53;;;;;;;36.63;19.00;;;;;;;;;;5046668;28;20229;-69
2022/01/08 12:24:27;;;;;;;40.83;19.80;;;;;;;;;;5045338;28;20668;-70
2022/01/08 12:26:58;;;;;;;39.43;20.63;;;;;;;;;;5047808;28;20196;-70
2022/01/08 12:29:37;;;;;;;36.33;18.90;;;;;;;;;;5041044;28;20197;-70
2022/01/08 12:32:37;;;;;;;38.00;19.13;;;;;;;;;;5045268;28;20625;-70
2022/01/08 12:35:14;;;;;;;38.27;18.77;;;;;;;;;;5045904;28;20657;-70
2022/01/08 12:37:41;;;;;;;35.93;18.10;;;;;;;;;;5044317;28;20182;-69
2022/01/08 12:40:09;;;;;;;37.87;19.13;;;;;;;;;;5044693;28;20709;-70
2022/01/08 12:42:43;;;;;;;41.63;18.60;;;;;;;;;;5041892;28;20693;-71
2022/01/08 12:45:12;;;;;;;36.00;18.93;;;;;;;;;;5045287;28;20198;-70
2022/01/08 12:47:47;;;;;;;38.40;18.47;;;;;;;;;;5047099;28;20272;-69
2022/01/08 12:50:16;;;;;;;31.17;16.73;;;;;;;;;;5039923;28;20240;-70
2022/01/08 12:53:21;;;;;;;31.13;17.10;;;;;;;;;;5033244;28;20248;-70
2022/01/08 12:55:55;;;;;;;33.33;17.17;;;;;;;;;;4994027;28;20204;-69
2022/01/08 12:58:25;;;;;;;35.33;20.27;;;;;;;;;;5034641;28;22653;-70
2022/01/08 13:01:03;;;;;;;30.23;16.10;;;;;;;;;;5032222;28;20213;-71
2022/01/08 13:03:33;;;;;;;33.20;16.73;;;;;;;;;;5033974;28;20200;-70
2022/01/08 13:06:09;;;;;;;32.80;15.27;;;;;;;;;;5034005;28;20452;-71
2022/01/08 13:08:34;;;;;;;34.20;15.40;;;;;;;;;;5032328;28;20413;-69
2022/01/08 13:11:03;;;;;;;29.30;15.43;;;;;;;;;;5034315;28;20201;-69
2022/01/08 13:13:39;;;;;;;28.07;15.33;;;;;;;;;;5045903;28;20186;-69
2022/01/08 13:16:16;;;;;;;29.40;14.07;;;;;;;;;;5043781;28;20181;-70
2022/01/08 13:18:48;;;;;;;26.67;13.83;;;;;;;;;;5038063;28;20200;-70
2022/01/08 13:21:13;;;;;;;24.43;13.03;;;;;;;;;;5040243;28;20292;-69
2022/01/08 13:23:47;;;;;;;23.47;12.70;;;;;;;;;;5046041;28;20271;-70
2022/01/08 13:26:13;;;;;;;28.47;12.93;;;;;;;;;;5041787;28;20485;-70
2022/01/08 13:28:46;;;;;;;23.10;12.50;;;;;;;;;;5043006;28;20194;-70
2022/01/08 13:31:11;;;;;;;22.00;12.27;;;;;;;;;;5041361;28;20201;-69
2022/01/08 13:33:37;;;;;;;22.63;12.53;;;;;;;;;;5044553;28;20273;-69
2022/01/08 13:36:12;;;;;;;26.43;12.00;;;;;;;;;;5040979;28;20231;-70
2022/01/08 13:38:40;;;;;;;21.77;11.30;;;;;;;;;;5042404;28;20193;-70
2022/01/08 13:41:11;;;;;;;20.30;11.33;;;;;;;;;;5043348;28;20662;-70
2022/01/08 13:43:59;;;;;;;20.50;11.80;;;;;;;;;;5043341;28;20200;-69
2022/01/08 13:46:26;;;;;;;20.73;11.57;;;;;;;;;;5044048;28;20181;-70
2022/01/08 13:48:52;;;;;;;20.17;10.50;;;;;;;;;;5041104;28;20424;-70
2022/01/08 13:51:20;;;;;;;21.00;10.93;;;;;;;;;;5043535;28;20189;-69
2022/01/08 13:54:05;;;;;;;20.63;10.67;;;;;;;;;;5040092;28;20194;-70
2022/01/08 13:56:32;;;;;;;23.03;10.83;;;;;;;;;;5042366;28;20232;-70
2022/01/08 13:59:06;;;;;;;20.17;10.20;;;;;;;;;;5040282;28;20232;-70
2022/01/08 14:01:58;;;;;;;23.23;9.70;;;;;;;;;;5043702;28;20418;-69
2022/01/08 14:04:24;;;;;;;23.60;10.00;;;;;;;;;;5039622;28;20189;-69
2022/01/08 14:06:50;;;;;;;17.83;9.47;;;;;;;;;;5044583;28;20205;-69
2022/01/08 14:09:19;;;;;;;17.73;8.83;;;;;;;;;;5041855;28;20235;-68
2022/01/08 14:11:46;;;;;;;25.37;10.23;;;;;;;;;;5043397;28;20250;-69
2022/01/08 14:14:17;;;;;;;16.47;8.53;;;;;;;;;;5043450;28;20252;-68
2022/01/08 14:16:42;;;;;;;18.63;8.17;;;;;;;;;;5039878;28;20194;-69
2022/01/08 14:19:16;;;;;;;16.37;8.70;;;;;;;;;;5041905;28;20192;-69
2022/01/08 14:21:58;;;;;;;17.27;8.30;;;;;;;;;;5034021;28;20510;-70
2022/01/08 14:24:25;;;;;;;13.57;7.60;;;;;;;;;;5033124;28;20185;-68
2022/01/08 14:27:07;;;;;;;16.67;7.23;;;;;;;;;;5034777;28;20201;-68
2022/01/08 14:29:41;;;;;;;10.77;6.50;;;;;;;;;;5032439;28;20280;-69
2022/01/08 14:32:08;;;;;;;13.90;6.33;;;;;;;;;;5050403;28;20342;-70
2022/01/08 14:34:47;;;;;;;14.33;7.60;;;;;;;;;;5033782;28;20365;-69
2022/01/08 14:37:26;;;;;;;12.70;5.93;;;;;;;;;;5042051;28;20189;-70
2022/01/08 14:39:52;;;;;;;11.50;6.03;;;;;;;;;;5040639;28;20199;-70
2022/01/08 14:42:19;;;;;;;14.77;6.93;;;;;;;;;;5036371;28;20213;-70
2022/01/08 14:44:53;;;;;;;11.30;5.83;;;;;;;;;;5040794;28;20510;-71
2022/01/08 14:47:37;;;;;;;12.97;6.10;;;;;;;;;;5038875;28;20274;-73